Terminal Aerodrome Forecast
Issued by NWS Mt. Holly, NJ

Home | Current Version | Previous Version | Text Only | Print | Product List | Glossary On
Versions: 1 2 3 4 5 6 7 8 9 10 11 12 13 14
000
FTUS41 KPHI 060523
TAFTTN
TAF
KTTN 060523Z 0606/0706 VRB03KT P6SM SCT050 BKN100
     FM061200 07006KT P6SM FEW025 BKN050
     FM062000 12008KT P6SM BKN050=

USA.gov is the U.S. government's official web portal to all federal, state and local government web resources and services.